sensor_id;sensor_type;location;lat;lon;timestamp;P1;durP1;ratioP1;P2;durP2;ratioP2
3597;SDS011;1813;52.016;8.714;2023-02-14T00:01:22;36.13;;;23.70;;
3597;SDS011;1813;52.016;8.714;2023-02-14T00:03:56;45.33;;;26.73;;
3597;SDS011;1813;52.016;8.714;2023-02-14T00:06:31;40.37;;;24.67;;
3597;SDS011;1813;52.016;8.714;2023-02-14T00:09:12;43.20;;;25.87;;
3597;SDS011;1813;52.016;8.714;2023-02-14T00:11:47;42.53;;;24.87;;
3597;SDS011;1813;52.016;8.714;2023-02-14T00:14:24;44.80;;;26.33;;
3597;SDS011;1813;52.016;8.714;2023-02-14T00:17:10;45.27;;;25.80;;
3597;SDS011;1813;52.016;8.714;2023-02-14T00:19:43;40.73;;;24.90;;
3597;SDS011;1813;52.016;8.714;2023-02-14T00:22:17;39.50;;;24.00;;
3597;SDS011;1813;52.016;8.714;2023-02-14T00:24:54;37.27;;;22.80;;
3597;SDS011;1813;52.016;8.714;2023-02-14T00:27:27;44.40;;;25.73;;
3597;SDS011;1813;52.016;8.714;2023-02-14T00:30:05;56.87;;;26.87;;
3597;SDS011;1813;52.016;8.714;2023-02-14T00:32:42;484.17;;;25.47;;
3597;SDS011;1813;52.016;8.714;2023-02-14T00:35:15;328.37;;;20.00;;
3597;SDS011;1813;52.016;8.714;2023-02-14T00:37:49;108.53;;;22.60;;
3597;SDS011;1813;52.016;8.714;2023-02-14T00:40:28;143.17;;;23.90;;
3597;SDS011;1813;52.016;8.714;2023-02-14T00:43:03;48.37;;;26.50;;
3597;SDS011;1813;52.016;8.714;2023-02-14T00:45:39;71.97;;;30.20;;
3597;SDS011;1813;52.016;8.714;2023-02-14T00:48:13;46.07;;;26.63;;
3597;SDS011;1813;52.016;8.714;2023-02-14T00:50:48;48.37;;;26.53;;
3597;SDS011;1813;52.016;8.714;2023-02-14T00:53:23;150.30;;;32.07;;
3597;SDS011;1813;52.016;8.714;2023-02-14T00:55:59;87.97;;;29.30;;
3597;SDS011;1813;52.016;8.714;2023-02-14T00:58:34;51.90;;;27.90;;
3597;SDS011;1813;52.016;8.714;2023-02-14T01:01:09;45.10;;;26.70;;
3597;SDS011;1813;52.016;8.714;2023-02-14T01:03:46;64.30;;;31.33;;
3597;SDS011;1813;52.016;8.714;2023-02-14T01:06:22;60.60;;;32.10;;
3597;SDS011;1813;52.016;8.714;2023-02-14T01:08:56;41.60;;;25.43;;
3597;SDS011;1813;52.016;8.714;2023-02-14T01:11:33;330.73;;;24.60;;
3597;SDS011;1813;52.016;8.714;2023-02-14T01:14:07;44.37;;;25.40;;
3597;SDS011;1813;52.016;8.714;2023-02-14T01:16:41;115.40;;;25.47;;
3597;SDS011;1813;52.016;8.714;2023-02-14T01:19:15;283.40;;;26.50;;
3597;SDS011;1813;52.016;8.714;2023-02-14T01:21:50;222.43;;;30.57;;
3597;SDS011;1813;52.016;8.714;2023-02-14T01:24:27;335.57;;;32.50;;
3597;SDS011;1813;52.016;8.714;2023-02-14T01:27:06;51.53;;;29.47;;
3597;SDS011;1813;52.016;8.714;2023-02-14T01:29:40;49.27;;;28.63;;
3597;SDS011;1813;52.016;8.714;2023-02-14T01:32:15;162.30;;;29.90;;
3597;SDS011;1813;52.016;8.714;2023-02-14T01:34:49;379.57;;;35.50;;
3597;SDS011;1813;52.016;8.714;2023-02-14T01:37:23;95.70;;;30.40;;
3597;SDS011;1813;52.016;8.714;2023-02-14T01:39:57;46.90;;;27.80;;
3597;SDS011;1813;52.016;8.714;2023-02-14T01:42:35;51.80;;;27.20;;
3597;SDS011;1813;52.016;8.714;2023-02-14T01:45:13;77.83;;;33.20;;
3597;SDS011;1813;52.016;8.714;2023-02-14T01:47:51;82.40;;;27.10;;
3597;SDS011;1813;52.016;8.714;2023-02-14T01:50:30;49.90;;;27.57;;
3597;SDS011;1813;52.016;8.714;2023-02-14T01:53:09;44.10;;;27.00;;
3597;SDS011;1813;52.016;8.714;2023-02-14T01:55:46;67.27;;;33.03;;
3597;SDS011;1813;52.016;8.714;2023-02-14T01:58:28;69.60;;;34.13;;
3597;SDS011;1813;52.016;8.714;2023-02-14T02:01:06;69.13;;;33.90;;
3597;SDS011;1813;52.016;8.714;2023-02-14T02:03:42;62.30;;;31.90;;
3597;SDS011;1813;52.016;8.714;2023-02-14T02:06:20;69.30;;;34.27;;
3597;SDS011;1813;52.016;8.714;2023-02-14T02:09:02;234.27;;;30.13;;
3597;SDS011;1813;52.016;8.714;2023-02-14T02:11:43;46.33;;;24.60;;
3597;SDS011;1813;52.016;8.714;2023-02-14T02:14:22;45.30;;;26.50;;
3597;SDS011;1813;52.016;8.714;2023-02-14T02:17:06;178.07;;;24.20;;
3597;SDS011;1813;52.016;8.714;2023-02-14T02:20:03;227.47;;;25.77;;
3597;SDS011;1813;52.016;8.714;2023-02-14T02:29:36;374.93;;;32.53;;
3597;SDS011;1813;52.016;8.714;2023-02-14T02:35:56;78.43;;;29.90;;
3597;SDS011;1813;52.016;8.714;2023-02-14T02:38:47;57.13;;;28.87;;
3597;SDS011;1813;52.016;8.714;2023-02-14T02:41:31;63.43;;;33.20;;
3597;SDS011;1813;52.016;8.714;2023-02-14T02:44:15;74.03;;;33.60;;
3597;SDS011;1813;52.016;8.714;2023-02-14T02:46:53;67.43;;;33.93;;
3597;SDS011;1813;52.016;8.714;2023-02-14T02:49:37;66.83;;;34.27;;
3597;SDS011;1813;52.016;8.714;2023-02-14T02:52:43;59.93;;;30.60;;
3597;SDS011;1813;52.016;8.714;2023-02-14T02:55:40;64.07;;;32.60;;
3597;SDS011;1813;52.016;8.714;2023-02-14T02:58:31;60.17;;;31.73;;
3597;SDS011;1813;52.016;8.714;2023-02-14T03:01:10;76.40;;;36.90;;
3597;SDS011;1813;52.016;8.714;2023-02-14T03:03:46;79.33;;;37.60;;
3597;SDS011;1813;52.016;8.714;2023-02-14T03:06:36;68.13;;;33.87;;
3597;SDS011;1813;52.016;8.714;2023-02-14T03:09:48;66.00;;;33.10;;
3597;SDS011;1813;52.016;8.714;2023-02-14T03:12:41;61.27;;;31.37;;
3597;SDS011;1813;52.016;8.714;2023-02-14T03:15:31;62.07;;;33.03;;
3597;SDS011;1813;52.016;8.714;2023-02-14T03:18:17;75.80;;;34.93;;
3597;SDS011;1813;52.016;8.714;2023-02-14T03:21:05;80.40;;;35.20;;
3597;SDS011;1813;52.016;8.714;2023-02-14T03:23:48;126.80;;;37.10;;
3597;SDS011;1813;52.016;8.714;2023-02-14T03:26:35;72.77;;;33.83;;
3597;SDS011;1813;52.016;8.714;2023-02-14T03:29:12;119.40;;;34.73;;
3597;SDS011;1813;52.016;8.714;2023-02-14T03:31:54;63.67;;;31.27;;
3597;SDS011;1813;52.016;8.714;2023-02-14T03:34:34;68.00;;;33.30;;
3597;SDS011;1813;52.016;8.714;2023-02-14T03:37:14;70.30;;;34.43;;
3597;SDS011;1813;52.016;8.714;2023-02-14T03:39:55;64.30;;;32.87;;
3597;SDS011;1813;52.016;8.714;2023-02-14T03:42:39;65.30;;;32.20;;
3597;SDS011;1813;52.016;8.714;2023-02-14T03:45:18;67.23;;;33.37;;
3597;SDS011;1813;52.016;8.714;2023-02-14T03:47:57;216.57;;;23.63;;
3597;SDS011;1813;52.016;8.714;2023-02-14T03:50:36;229.97;;;24.60;;
3597;SDS011;1813;52.016;8.714;2023-02-14T03:53:14;72.17;;;24.60;;
3597;SDS011;1813;52.016;8.714;2023-02-14T03:55:53;50.73;;;28.57;;
3597;SDS011;1813;52.016;8.714;2023-02-14T03:58:37;60.57;;;31.47;;
3597;SDS011;1813;52.016;8.714;2023-02-14T04:01:15;59.20;;;29.83;;
3597;SDS011;1813;52.016;8.714;2023-02-14T04:03:54;87.30;;;27.03;;
3597;SDS011;1813;52.016;8.714;2023-02-14T04:06:29;52.60;;;27.07;;
3597;SDS011;1813;52.016;8.714;2023-02-14T04:09:03;54.43;;;27.97;;
3597;SDS011;1813;52.016;8.714;2023-02-14T04:11:37;66.63;;;31.27;;
3597;SDS011;1813;52.016;8.714;2023-02-14T04:14:15;65.60;;;32.00;;
3597;SDS011;1813;52.016;8.714;2023-02-14T04:16:49;75.60;;;33.50;;
3597;SDS011;1813;52.016;8.714;2023-02-14T04:19:36;97.20;;;29.77;;
3597;SDS011;1813;52.016;8.714;2023-02-14T04:22:10;319.73;;;34.13;;
3597;SDS011;1813;52.016;8.714;2023-02-14T04:24:44;48.97;;;27.60;;
3597;SDS011;1813;52.016;8.714;2023-02-14T04:27:17;60.93;;;25.33;;
3597;SDS011;1813;52.016;8.714;2023-02-14T04:29:54;48.37;;;26.57;;
3597;SDS011;1813;52.016;8.714;2023-02-14T04:32:28;499.93;;;32.77;;
3597;SDS011;1813;52.016;8.714;2023-02-14T04:35:02;381.87;;;28.10;;
3597;SDS011;1813;52.016;8.714;2023-02-14T04:37:35;316.53;;;28.53;;
3597;SDS011;1813;52.016;8.714;2023-02-14T04:40:10;43.80;;;23.40;;
3597;SDS011;1813;52.016;8.714;2023-02-14T04:42:46;40.43;;;23.90;;
3597;SDS011;1813;52.016;8.714;2023-02-14T04:45:22;40.73;;;24.00;;
3597;SDS011;1813;52.016;8.714;2023-02-14T04:47:56;44.50;;;24.20;;
3597;SDS011;1813;52.016;8.714;2023-02-14T04:50:30;39.80;;;23.40;;
3597;SDS011;1813;52.016;8.714;2023-02-14T04:53:03;43.37;;;23.80;;
3597;SDS011;1813;52.016;8.714;2023-02-14T04:55:37;46.53;;;23.33;;
3597;SDS011;1813;52.016;8.714;2023-02-14T04:58:11;44.67;;;24.50;;
3597;SDS011;1813;52.016;8.714;2023-02-14T05:00:48;45.27;;;25.20;;
3597;SDS011;1813;52.016;8.714;2023-02-14T05:03:21;45.80;;;25.23;;
3597;SDS011;1813;52.016;8.714;2023-02-14T05:05:55;46.73;;;26.17;;
3597;SDS011;1813;52.016;8.714;2023-02-14T05:08:29;59.57;;;29.60;;
3597;SDS011;1813;52.016;8.714;2023-02-14T05:11:04;56.60;;;29.43;;
3597;SDS011;1813;52.016;8.714;2023-02-14T05:13:38;56.67;;;29.73;;
3597;SDS011;1813;52.016;8.714;2023-02-14T05:16:14;68.13;;;32.33;;
3597;SDS011;1813;52.016;8.714;2023-02-14T05:18:48;73.53;;;33.70;;
3597;SDS011;1813;52.016;8.714;2023-02-14T05:21:22;72.43;;;34.93;;
3597;SDS011;1813;52.016;8.714;2023-02-14T05:23:57;71.13;;;34.00;;
3597;SDS011;1813;52.016;8.714;2023-02-14T05:26:31;66.87;;;32.40;;
3597;SDS011;1813;52.016;8.714;2023-02-14T05:29:05;52.23;;;28.30;;
3597;SDS011;1813;52.016;8.714;2023-02-14T05:31:41;50.03;;;27.73;;
3597;SDS011;1813;52.016;8.714;2023-02-14T05:34:15;50.40;;;26.50;;
3597;SDS011;1813;52.016;8.714;2023-02-14T05:36:49;49.07;;;26.70;;
3597;SDS011;1813;52.016;8.714;2023-02-14T05:39:24;48.50;;;27.37;;
3597;SDS011;1813;52.016;8.714;2023-02-14T05:41:58;47.07;;;25.97;;
3597;SDS011;1813;52.016;8.714;2023-02-14T05:44:32;46.77;;;25.70;;
3597;SDS011;1813;52.016;8.714;2023-02-14T05:47:09;45.00;;;25.23;;
3597;SDS011;1813;52.016;8.714;2023-02-14T05:49:42;52.10;;;26.60;;
3597;SDS011;1813;52.016;8.714;2023-02-14T05:52:16;51.67;;;28.17;;
3597;SDS011;1813;52.016;8.714;2023-02-14T05:54:50;50.33;;;27.70;;
3597;SDS011;1813;52.016;8.714;2023-02-14T05:57:24;52.40;;;27.77;;
3597;SDS011;1813;52.016;8.714;2023-02-14T06:00:00;50.27;;;27.40;;
3597;SDS011;1813;52.016;8.714;2023-02-14T06:02:45;47.00;;;26.50;;
3597;SDS011;1813;52.016;8.714;2023-02-14T06:05:20;45.33;;;26.07;;
3597;SDS011;1813;52.016;8.714;2023-02-14T06:07:54;50.50;;;27.13;;
3597;SDS011;1813;52.016;8.714;2023-02-14T06:10:30;44.87;;;25.30;;
3597;SDS011;1813;52.016;8.714;2023-02-14T06:13:03;44.70;;;24.77;;
3597;SDS011;1813;52.016;8.714;2023-02-14T06:15:40;40.97;;;24.00;;
3597;SDS011;1813;52.016;8.714;2023-02-14T06:18:16;50.43;;;25.70;;
3597;SDS011;1813;52.016;8.714;2023-02-14T06:20:51;37.07;;;21.67;;
3597;SDS011;1813;52.016;8.714;2023-02-14T06:23:26;38.10;;;22.40;;
3597;SDS011;1813;52.016;8.714;2023-02-14T06:26:00;143.33;;;24.53;;
3597;SDS011;1813;52.016;8.714;2023-02-14T06:28:34;48.00;;;25.13;;
3597;SDS011;1813;52.016;8.714;2023-02-14T06:31:13;45.73;;;25.13;;
3597;SDS011;1813;52.016;8.714;2023-02-14T06:33:51;47.23;;;26.70;;
3597;SDS011;1813;52.016;8.714;2023-02-14T06:36:25;47.67;;;26.37;;
3597;SDS011;1813;52.016;8.714;2023-02-14T06:38:59;484.00;;;40.70;;
3597;SDS011;1813;52.016;8.714;2023-02-14T06:41:32;60.03;;;28.60;;
3597;SDS011;1813;52.016;8.714;2023-02-14T06:44:06;52.07;;;28.03;;
3597;SDS011;1813;52.016;8.714;2023-02-14T06:46:42;52.60;;;26.90;;
3597;SDS011;1813;52.016;8.714;2023-02-14T06:49:18;58.23;;;29.10;;
3597;SDS011;1813;52.016;8.714;2023-02-14T06:51:53;50.77;;;26.77;;
3597;SDS011;1813;52.016;8.714;2023-02-14T06:54:26;52.37;;;28.03;;
3597;SDS011;1813;52.016;8.714;2023-02-14T06:57:00;54.30;;;28.70;;
3597;SDS011;1813;52.016;8.714;2023-02-14T06:59:34;51.73;;;28.00;;
3597;SDS011;1813;52.016;8.714;2023-02-14T07:02:09;42.17;;;23.10;;
3597;SDS011;1813;52.016;8.714;2023-02-14T07:04:47;42.33;;;24.30;;
3597;SDS011;1813;52.016;8.714;2023-02-14T07:07:20;46.13;;;27.00;;
3597;SDS011;1813;52.016;8.714;2023-02-14T07:09:58;48.73;;;27.00;;
3597;SDS011;1813;52.016;8.714;2023-02-14T07:12:32;56.00;;;28.57;;
3597;SDS011;1813;52.016;8.714;2023-02-14T07:15:09;51.77;;;27.83;;
3597;SDS011;1813;52.016;8.714;2023-02-14T07:17:44;60.07;;;28.07;;
3597;SDS011;1813;52.016;8.714;2023-02-14T07:20:20;57.30;;;30.13;;
3597;SDS011;1813;52.016;8.714;2023-02-14T07:22:54;60.03;;;32.63;;
3597;SDS011;1813;52.016;8.714;2023-02-14T07:25:28;59.10;;;32.20;;
3597;SDS011;1813;52.016;8.714;2023-02-14T07:28:02;62.77;;;32.67;;
3597;SDS011;1813;52.016;8.714;2023-02-14T07:30:37;57.57;;;32.97;;
3597;SDS011;1813;52.016;8.714;2023-02-14T07:33:11;56.23;;;31.57;;
3597;SDS011;1813;52.016;8.714;2023-02-14T07:35:48;62.63;;;34.90;;
3597;SDS011;1813;52.016;8.714;2023-02-14T07:38:21;60.37;;;34.67;;
3597;SDS011;1813;52.016;8.714;2023-02-14T07:40:55;53.33;;;31.67;;
3597;SDS011;1813;52.016;8.714;2023-02-14T07:43:29;49.67;;;28.00;;
3597;SDS011;1813;52.016;8.714;2023-02-14T07:46:04;42.63;;;26.23;;
3597;SDS011;1813;52.016;8.714;2023-02-14T07:48:38;38.77;;;24.20;;
3597;SDS011;1813;52.016;8.714;2023-02-14T07:51:15;34.57;;;22.60;;
3597;SDS011;1813;52.016;8.714;2023-02-14T07:53:49;43.13;;;25.33;;
3597;SDS011;1813;52.016;8.714;2023-02-14T07:56:23;36.43;;;22.60;;
3597;SDS011;1813;52.016;8.714;2023-02-14T07:58:58;33.20;;;21.00;;
3597;SDS011;1813;52.016;8.714;2023-02-14T08:01:32;32.33;;;21.40;;
3597;SDS011;1813;52.016;8.714;2023-02-14T08:04:07;29.57;;;20.27;;
3597;SDS011;1813;52.016;8.714;2023-02-14T08:06:45;30.50;;;19.70;;
3597;SDS011;1813;52.016;8.714;2023-02-14T08:09:19;31.57;;;20.27;;
3597;SDS011;1813;52.016;8.714;2023-02-14T08:11:56;28.77;;;19.80;;
3597;SDS011;1813;52.016;8.714;2023-02-14T08:14:43;28.60;;;18.93;;
3597;SDS011;1813;52.016;8.714;2023-02-14T08:17:17;29.60;;;19.23;;
3597;SDS011;1813;52.016;8.714;2023-02-14T08:19:51;31.80;;;19.50;;
3597;SDS011;1813;52.016;8.714;2023-02-14T08:22:28;27.77;;;18.53;;
3597;SDS011;1813;52.016;8.714;2023-02-14T08:25:02;29.03;;;19.20;;
3597;SDS011;1813;52.016;8.714;2023-02-14T08:27:36;29.70;;;19.67;;
3597;SDS011;1813;52.016;8.714;2023-02-14T08:30:13;32.00;;;19.93;;
3597;SDS011;1813;52.016;8.714;2023-02-14T08:32:47;29.57;;;19.03;;
3597;SDS011;1813;52.016;8.714;2023-02-14T08:35:22;28.87;;;19.03;;
3597;SDS011;1813;52.016;8.714;2023-02-14T08:37:59;33.23;;;20.23;;
3597;SDS011;1813;52.016;8.714;2023-02-14T08:40:33;28.63;;;18.90;;
3597;SDS011;1813;52.016;8.714;2023-02-14T08:43:07;28.80;;;19.00;;
3597;SDS011;1813;52.016;8.714;2023-02-14T08:45:41;28.50;;;18.23;;
3597;SDS011;1813;52.016;8.714;2023-02-14T08:48:15;29.20;;;18.90;;
3597;SDS011;1813;52.016;8.714;2023-02-14T08:50:49;32.60;;;18.23;;
3597;SDS011;1813;52.016;8.714;2023-02-14T08:53:26;31.57;;;19.13;;
3597;SDS011;1813;52.016;8.714;2023-02-14T08:56:04;30.13;;;19.00;;
3597;SDS011;1813;52.016;8.714;2023-02-14T08:58:39;30.27;;;19.30;;
3597;SDS011;1813;52.016;8.714;2023-02-14T09:01:14;30.83;;;20.10;;
3597;SDS011;1813;52.016;8.714;2023-02-14T09:03:50;28.03;;;18.60;;
3597;SDS011;1813;52.016;8.714;2023-02-14T09:06:24;27.00;;;18.33;;
3597;SDS011;1813;52.016;8.714;2023-02-14T09:09:01;27.70;;;18.40;;
3597;SDS011;1813;52.016;8.714;2023-02-14T09:11:36;28.20;;;19.53;;
3597;SDS011;1813;52.016;8.714;2023-02-14T09:14:09;25.83;;;17.70;;
3597;SDS011;1813;52.016;8.714;2023-02-14T09:16:43;28.63;;;18.83;;
3597;SDS011;1813;52.016;8.714;2023-02-14T09:19:17;28.10;;;17.97;;
3597;SDS011;1813;52.016;8.714;2023-02-14T09:21:50;27.37;;;18.00;;
3597;SDS011;1813;52.016;8.714;2023-02-14T09:24:28;27.13;;;17.50;;
3597;SDS011;1813;52.016;8.714;2023-02-14T09:27:02;26.30;;;17.80;;
3597;SDS011;1813;52.016;8.714;2023-02-14T09:29:37;31.03;;;17.90;;
3597;SDS011;1813;52.016;8.714;2023-02-14T09:32:11;26.47;;;18.40;;
3597;SDS011;1813;52.016;8.714;2023-02-14T09:34:45;24.77;;;17.30;;
3597;SDS011;1813;52.016;8.714;2023-02-14T09:37:31;27.90;;;18.50;;
3597;SDS011;1813;52.016;8.714;2023-02-14T09:40:20;24.17;;;16.70;;
3597;SDS011;1813;52.016;8.714;2023-02-14T09:42:57;26.43;;;17.60;;
3597;SDS011;1813;52.016;8.714;2023-02-14T09:45:35;28.10;;;18.23;;
3597;SDS011;1813;52.016;8.714;2023-02-14T09:48:11;27.20;;;18.83;;
3597;SDS011;1813;52.016;8.714;2023-02-14T09:50:53;26.97;;;18.73;;
3597;SDS011;1813;52.016;8.714;2023-02-14T09:53:31;28.53;;;17.73;;
3597;SDS011;1813;52.016;8.714;2023-02-14T09:56:13;25.50;;;18.10;;
3597;SDS011;1813;52.016;8.714;2023-02-14T09:58:54;26.63;;;17.70;;
3597;SDS011;1813;52.016;8.714;2023-02-14T10:01:39;25.87;;;16.80;;
3597;SDS011;1813;52.016;8.714;2023-02-14T10:04:20;26.93;;;16.80;;
3597;SDS011;1813;52.016;8.714;2023-02-14T10:07:04;29.47;;;17.70;;
3597;SDS011;1813;52.016;8.714;2023-02-14T10:09:50;30.17;;;17.70;;
3597;SDS011;1813;52.016;8.714;2023-02-14T10:12:33;26.17;;;16.70;;
3597;SDS011;1813;52.016;8.714;2023-02-14T10:15:13;23.70;;;16.83;;
3597;SDS011;1813;52.016;8.714;2023-02-14T10:17:54;26.97;;;17.37;;
3597;SDS011;1813;52.016;8.714;2023-02-14T10:20:34;26.97;;;16.60;;
3597;SDS011;1813;52.016;8.714;2023-02-14T10:23:18;22.90;;;15.83;;
3597;SDS011;1813;52.016;8.714;2023-02-14T10:26:00;25.63;;;16.40;;
3597;SDS011;1813;52.016;8.714;2023-02-14T10:28:40;23.80;;;16.20;;
3597;SDS011;1813;52.016;8.714;2023-02-14T10:31:19;28.93;;;17.37;;
3597;SDS011;1813;52.016;8.714;2023-02-14T10:33:55;31.53;;;17.80;;
3597;SDS011;1813;52.016;8.714;2023-02-14T10:36:40;25.90;;;16.70;;
3597;SDS011;1813;52.016;8.714;2023-02-14T10:39:39;27.03;;;17.40;;
3597;SDS011;1813;52.016;8.714;2023-02-14T10:42:24;24.23;;;16.13;;
3597;SDS011;1813;52.016;8.714;2023-02-14T10:45:13;27.60;;;16.67;;
3597;SDS011;1813;52.016;8.714;2023-02-14T10:47:54;26.83;;;17.17;;
3597;SDS011;1813;52.016;8.714;2023-02-14T10:50:35;23.77;;;16.23;;
3597;SDS011;1813;52.016;8.714;2023-02-14T10:53:16;29.23;;;16.53;;
3597;SDS011;1813;52.016;8.714;2023-02-14T10:55:56;22.67;;;15.60;;
3597;SDS011;1813;52.016;8.714;2023-02-14T10:58:35;24.23;;;16.00;;
3597;SDS011;1813;52.016;8.714;2023-02-14T11:01:15;24.20;;;16.17;;
3597;SDS011;1813;52.016;8.714;2023-02-14T11:03:51;22.07;;;15.13;;
3597;SDS011;1813;52.016;8.714;2023-02-14T11:06:27;29.50;;;15.83;;
3597;SDS011;1813;52.016;8.714;2023-02-14T11:09:02;20.47;;;14.50;;
3597;SDS011;1813;52.016;8.714;2023-02-14T11:11:36;25.07;;;15.70;;
3597;SDS011;1813;52.016;8.714;2023-02-14T11:14:24;23.67;;;16.00;;
3597;SDS011;1813;52.016;8.714;2023-02-14T11:17:21;24.23;;;15.97;;
3597;SDS011;1813;52.016;8.714;2023-02-14T11:20:00;23.53;;;14.93;;
3597;SDS011;1813;52.016;8.714;2023-02-14T11:22:38;21.03;;;13.57;;
3597;SDS011;1813;52.016;8.714;2023-02-14T11:25:17;20.83;;;14.63;;
3597;SDS011;1813;52.016;8.714;2023-02-14T11:27:55;22.60;;;15.77;;
3597;SDS011;1813;52.016;8.714;2023-02-14T11:30:32;23.33;;;15.30;;
3597;SDS011;1813;52.016;8.714;2023-02-14T11:33:21;20.30;;;14.90;;
3597;SDS011;1813;52.016;8.714;2023-02-14T11:36:01;22.90;;;15.17;;
3597;SDS011;1813;52.016;8.714;2023-02-14T11:38:37;28.37;;;14.70;;
3597;SDS011;1813;52.016;8.714;2023-02-14T11:41:13;21.63;;;14.30;;
3597;SDS011;1813;52.016;8.714;2023-02-14T11:43:49;20.70;;;15.00;;
3597;SDS011;1813;52.016;8.714;2023-02-14T11:46:24;30.20;;;14.03;;
3597;SDS011;1813;52.016;8.714;2023-02-14T11:49:05;19.00;;;13.47;;
3597;SDS011;1813;52.016;8.714;2023-02-14T11:51:57;19.43;;;13.30;;
3597;SDS011;1813;52.016;8.714;2023-02-14T11:54:34;17.60;;;11.60;;
3597;SDS011;1813;52.016;8.714;2023-02-14T11:57:10;16.37;;;12.77;;
3597;SDS011;1813;52.016;8.714;2023-02-14T11:59:50;18.60;;;12.80;;
3597;SDS011;1813;52.016;8.714;2023-02-14T12:02:28;16.57;;;12.03;;
3597;SDS011;1813;52.016;8.714;2023-02-14T12:05:14;21.13;;;12.60;;
3597;SDS011;1813;52.016;8.714;2023-02-14T12:07:50;20.97;;;12.50;;
3597;SDS011;1813;52.016;8.714;2023-02-14T12:10:26;21.20;;;13.00;;
3597;SDS011;1813;52.016;8.714;2023-02-14T12:13:02;17.40;;;10.17;;
3597;SDS011;1813;52.016;8.714;2023-02-14T12:15:52;16.43;;;11.13;;
3597;SDS011;1813;52.016;8.714;2023-02-14T12:21:45;22.17;;;12.80;;
3597;SDS011;1813;52.016;8.714;2023-02-14T12:24:25;18.17;;;12.00;;
3597;SDS011;1813;52.016;8.714;2023-02-14T12:27:09;17.90;;;11.93;;
3597;SDS011;1813;52.016;8.714;2023-02-14T12:29:53;16.23;;;12.00;;
3597;SDS011;1813;52.016;8.714;2023-02-14T12:32:37;17.17;;;12.10;;
3597;SDS011;1813;52.016;8.714;2023-02-14T12:35:17;14.57;;;10.70;;
3597;SDS011;1813;52.016;8.714;2023-02-14T12:38:05;19.67;;;11.90;;
3597;SDS011;1813;52.016;8.714;2023-02-14T12:40:45;14.10;;;10.27;;
3597;SDS011;1813;52.016;8.714;2023-02-14T12:43:34;14.73;;;10.17;;
3597;SDS011;1813;52.016;8.714;2023-02-14T12:46:32;14.20;;;10.43;;
3597;SDS011;1813;52.016;8.714;2023-02-14T12:49:36;18.30;;;10.67;;
3597;SDS011;1813;52.016;8.714;2023-02-14T12:52:32;13.40;;;10.27;;
3597;SDS011;1813;52.016;8.714;2023-02-14T12:55:22;13.83;;;10.47;;
3597;SDS011;1813;52.016;8.714;2023-02-14T12:58:17;18.00;;;11.00;;
3597;SDS011;1813;52.016;8.714;2023-02-14T13:01:03;15.03;;;10.50;;
3597;SDS011;1813;52.016;8.714;2023-02-14T13:03:51;18.83;;;11.47;;
3597;SDS011;1813;52.016;8.714;2023-02-14T13:06:39;15.60;;;10.87;;
3597;SDS011;1813;52.016;8.714;2023-02-14T13:09:24;15.23;;;10.33;;
3597;SDS011;1813;52.016;8.714;2023-02-14T13:12:14;15.67;;;11.47;;
3597;SDS011;1813;52.016;8.714;2023-02-14T13:15:05;19.23;;;13.87;;
3597;SDS011;1813;52.016;8.714;2023-02-14T13:17:51;23.57;;;13.60;;
3597;SDS011;1813;52.016;8.714;2023-02-14T13:20:39;19.80;;;13.07;;
3597;SDS011;1813;52.016;8.714;2023-02-14T13:23:19;16.50;;;11.83;;
3597;SDS011;1813;52.016;8.714;2023-02-14T13:26:00;18.43;;;12.40;;
3597;SDS011;1813;52.016;8.714;2023-02-14T13:28:42;19.13;;;11.70;;
3597;SDS011;1813;52.016;8.714;2023-02-14T13:31:21;16.40;;;12.07;;
3597;SDS011;1813;52.016;8.714;2023-02-14T13:33:57;20.20;;;12.10;;
3597;SDS011;1813;52.016;8.714;2023-02-14T13:36:36;16.93;;;11.40;;
3597;SDS011;1813;52.016;8.714;2023-02-14T13:39:10;19.87;;;11.23;;
3597;SDS011;1813;52.016;8.714;2023-02-14T13:41:50;15.50;;;11.10;;
3597;SDS011;1813;52.016;8.714;2023-02-14T13:47:20;17.90;;;10.63;;
3597;SDS011;1813;52.016;8.714;2023-02-14T13:49:57;24.10;;;15.63;;
3597;SDS011;1813;52.016;8.714;2023-02-14T13:52:38;21.03;;;12.60;;
3597;SDS011;1813;52.016;8.714;2023-02-14T13:55:15;18.30;;;11.53;;
3597;SDS011;1813;52.016;8.714;2023-02-14T13:58:00;19.90;;;13.40;;
3597;SDS011;1813;52.016;8.714;2023-02-14T14:00:41;18.53;;;13.07;;
3597;SDS011;1813;52.016;8.714;2023-02-14T14:12:43;19.73;;;13.40;;
3597;SDS011;1813;52.016;8.714;2023-02-14T14:15:21;17.40;;;13.07;;
3597;SDS011;1813;52.016;8.714;2023-02-14T14:21:01;21.57;;;13.47;;
3597;SDS011;1813;52.016;8.714;2023-02-14T14:23:58;20.47;;;13.40;;
3597;SDS011;1813;52.016;8.714;2023-02-14T14:26:38;19.93;;;13.90;;
3597;SDS011;1813;52.016;8.714;2023-02-14T14:29:16;20.73;;;13.80;;
3597;SDS011;1813;52.016;8.714;2023-02-14T14:31:53;22.40;;;13.67;;
3597;SDS011;1813;52.016;8.714;2023-02-14T14:34:27;18.83;;;14.30;;
3597;SDS011;1813;52.016;8.714;2023-02-14T14:37:04;19.13;;;13.47;;
3597;SDS011;1813;52.016;8.714;2023-02-14T14:39:40;20.57;;;14.13;;
3597;SDS011;1813;52.016;8.714;2023-02-14T14:42:14;19.97;;;13.93;;
3597;SDS011;1813;52.016;8.714;2023-02-14T14:44:50;18.67;;;13.23;;
3597;SDS011;1813;52.016;8.714;2023-02-14T14:47:28;21.20;;;14.57;;
3597;SDS011;1813;52.016;8.714;2023-02-14T14:50:13;19.13;;;13.90;;
3597;SDS011;1813;52.016;8.714;2023-02-14T14:52:53;18.13;;;13.00;;
3597;SDS011;1813;52.016;8.714;2023-02-14T14:55:30;21.13;;;14.53;;
3597;SDS011;1813;52.016;8.714;2023-02-14T14:58:10;19.77;;;14.60;;
3597;SDS011;1813;52.016;8.714;2023-02-14T15:01:10;21.40;;;14.60;;
3597;SDS011;1813;52.016;8.714;2023-02-14T15:03:51;18.20;;;13.13;;
3597;SDS011;1813;52.016;8.714;2023-02-14T15:06:28;22.70;;;15.00;;
3597;SDS011;1813;52.016;8.714;2023-02-14T15:09:18;22.93;;;14.40;;
3597;SDS011;1813;52.016;8.714;2023-02-14T15:11:55;22.50;;;14.27;;
3597;SDS011;1813;52.016;8.714;2023-02-14T15:14:44;19.40;;;13.87;;
3597;SDS011;1813;52.016;8.714;2023-02-14T15:17:39;22.20;;;14.57;;
3597;SDS011;1813;52.016;8.714;2023-02-14T15:20:16;23.23;;;14.63;;
3597;SDS011;1813;52.016;8.714;2023-02-14T15:22:55;22.20;;;14.30;;
3597;SDS011;1813;52.016;8.714;2023-02-14T15:25:33;24.20;;;14.23;;
3597;SDS011;1813;52.016;8.714;2023-02-14T15:28:16;21.83;;;13.83;;
3597;SDS011;1813;52.016;8.714;2023-02-14T15:31:04;23.50;;;14.97;;
3597;SDS011;1813;52.016;8.714;2023-02-14T15:33:42;23.97;;;15.90;;
3597;SDS011;1813;52.016;8.714;2023-02-14T15:36:18;27.13;;;14.80;;
3597;SDS011;1813;52.016;8.714;2023-02-14T15:38:54;24.40;;;15.60;;
3597;SDS011;1813;52.016;8.714;2023-02-14T15:41:36;22.73;;;14.40;;
3597;SDS011;1813;52.016;8.714;2023-02-14T15:44:19;23.43;;;14.40;;
3597;SDS011;1813;52.016;8.714;2023-02-14T15:46:54;21.20;;;14.83;;
3597;SDS011;1813;52.016;8.714;2023-02-14T15:49:32;20.50;;;14.00;;
3597;SDS011;1813;52.016;8.714;2023-02-14T15:52:11;22.97;;;15.10;;
3597;SDS011;1813;52.016;8.714;2023-02-14T15:54:46;23.67;;;14.63;;
3597;SDS011;1813;52.016;8.714;2023-02-14T15:57:24;20.70;;;14.70;;
3597;SDS011;1813;52.016;8.714;2023-02-14T16:00:02;25.13;;;15.37;;
3597;SDS011;1813;52.016;8.714;2023-02-14T16:02:42;21.60;;;15.10;;
3597;SDS011;1813;52.016;8.714;2023-02-14T16:05:19;22.70;;;14.90;;
3597;SDS011;1813;52.016;8.714;2023-02-14T16:07:57;24.53;;;15.07;;
3597;SDS011;1813;52.016;8.714;2023-02-14T16:10:33;25.73;;;14.87;;
3597;SDS011;1813;52.016;8.714;2023-02-14T16:13:19;25.07;;;14.77;;
3597;SDS011;1813;52.016;8.714;2023-02-14T16:16:04;20.97;;;14.27;;
3597;SDS011;1813;52.016;8.714;2023-02-14T16:18:40;24.90;;;15.63;;
3597;SDS011;1813;52.016;8.714;2023-02-14T16:21:17;25.93;;;16.00;;
3597;SDS011;1813;52.016;8.714;2023-02-14T16:26:45;25.40;;;15.90;;